メインページ
METAR-TAF:

METAR-TAF

空港 :

静岡空港

静岡, 日本

緯度: 34-47-46N, 経度: 138-11-22E, 海抜: 132m

現時点の気象観測

当レポートは54分前の11:00(UTC)に作成
西/北西の風 2kt
気温 16°C
湿度 63%
気圧 1020 hPa
視程10km以上
高度3000ftの雲はほとんどない
千切れ雲あり

METAR: RJNS 201100Z 30002KT 9999 FEW030 BKN/// 16/09 Q1020

時間: 20:54 (11:54 UTC)

予報

当レポートは48分前の11:06(UTC)に作成
予報は20日の 12時(UTC)から 21日の 18時(UTC)まで有効
北西の風 4kt
視程10km以上
高度3000ftの雲はほとんどない
20日の 22時(UTC)から 21日の 00時(UTC)まで徐々に
の風 8kt
21日の 12時(UTC)から 21日の 15時(UTC)まで徐々に
の風 4kt

TAF: RJNS 201106Z 2012/2118 32004KT 9999 FEW030 BECMG 2022/2100 10008KT BECMG 2112/2115 01004KT

4,000以上の空港の気象観測と天気予報(METAR報とTAF報)

利用可能な観測所は地図上に黄色い丸と赤い丸で示す。

丸の上にカーソルを重ねると観測所名を参照できる。

次にクリックすると気象観測と天気予報を参照できる。

マップの切り替え:黒色「×」印の緑ボタンをクリックして拡大、「-」印の緑ボタンをクリックして縮小、緑色の三角印をクリックして隣りの地図に切り替え


METAR-TAF: